sensor_id;sensor_type;location;lat;lon;timestamp;P1;durP1;ratioP1;P2;durP2;ratioP2
31746;SDS011;18319;48.974;8.462;2023-07-20T00:01:47;3.08;;;1.35;;
31746;SDS011;18319;48.974;8.462;2023-07-20T00:04:14;2.50;;;1.42;;
31746;SDS011;18319;48.974;8.462;2023-07-20T00:06:41;1.55;;;1.45;;
31746;SDS011;18319;48.974;8.462;2023-07-20T00:09:07;1.52;;;1.42;;
31746;SDS011;18319;48.974;8.462;2023-07-20T00:11:35;1.55;;;1.45;;
31746;SDS011;18319;48.974;8.462;2023-07-20T00:14:05;2.20;;;1.27;;
31746;SDS011;18319;48.974;8.462;2023-07-20T00:16:32;3.95;;;1.25;;
31746;SDS011;18319;48.974;8.462;2023-07-20T00:18:59;2.13;;;1.58;;
31746;SDS011;18319;48.974;8.462;2023-07-20T00:21:25;3.40;;;1.40;;
31746;SDS011;18319;48.974;8.462;2023-07-20T00:23:52;1.92;;;1.50;;
31746;SDS011;18319;48.974;8.462;2023-07-20T00:26:19;3.47;;;1.48;;
31746;SDS011;18319;48.974;8.462;2023-07-20T00:28:46;1.33;;;1.20;;
31746;SDS011;18319;48.974;8.462;2023-07-20T00:31:14;1.80;;;1.70;;
31746;SDS011;18319;48.974;8.462;2023-07-20T00:33:40;1.98;;;1.40;;
31746;SDS011;18319;48.974;8.462;2023-07-20T00:36:07;2.38;;;1.52;;
31746;SDS011;18319;48.974;8.462;2023-07-20T00:38:34;1.60;;;1.50;;
31746;SDS011;18319;48.974;8.462;2023-07-20T00:41:01;2.65;;;1.60;;
31746;SDS011;18319;48.974;8.462;2023-07-20T00:43:27;3.67;;;1.25;;
31746;SDS011;18319;48.974;8.462;2023-07-20T00:45:54;2.38;;;1.70;;
31746;SDS011;18319;48.974;8.462;2023-07-20T00:48:23;1.95;;;1.75;;
31746;SDS011;18319;48.974;8.462;2023-07-20T00:50:49;1.40;;;1.30;;
31746;SDS011;18319;48.974;8.462;2023-07-20T00:53:16;1.75;;;1.50;;
31746;SDS011;18319;48.974;8.462;2023-07-20T00:55:44;2.33;;;1.63;;
31746;SDS011;18319;48.974;8.462;2023-07-20T00:58:11;1.95;;;1.83;;
31746;SDS011;18319;48.974;8.462;2023-07-20T01:00:37;2.30;;;1.60;;
31746;SDS011;18319;48.974;8.462;2023-07-20T01:03:04;1.92;;;1.50;;
31746;SDS011;18319;48.974;8.462;2023-07-20T01:05:35;1.95;;;1.58;;
31746;SDS011;18319;48.974;8.462;2023-07-20T01:08:07;4.13;;;1.50;;
31746;SDS011;18319;48.974;8.462;2023-07-20T01:10:41;2.03;;;1.42;;
31746;SDS011;18319;48.974;8.462;2023-07-20T01:13:12;1.75;;;1.58;;
31746;SDS011;18319;48.974;8.462;2023-07-20T01:15:41;1.60;;;1.50;;
31746;SDS011;18319;48.974;8.462;2023-07-20T01:18:07;1.40;;;1.23;;
31746;SDS011;18319;48.974;8.462;2023-07-20T01:20:35;2.25;;;1.85;;
31746;SDS011;18319;48.974;8.462;2023-07-20T01:23:11;1.75;;;1.65;;
31746;SDS011;18319;48.974;8.462;2023-07-20T01:25:57;5.63;;;1.50;;
31746;SDS011;18319;48.974;8.462;2023-07-20T01:28:48;2.00;;;1.60;;
31746;SDS011;18319;48.974;8.462;2023-07-20T01:31:25;2.50;;;1.50;;
31746;SDS011;18319;48.974;8.462;2023-07-20T01:33:56;4.10;;;1.70;;
31746;SDS011;18319;48.974;8.462;2023-07-20T01:36:24;4.20;;;2.20;;
31746;SDS011;18319;48.974;8.462;2023-07-20T01:38:54;1.70;;;1.60;;
31746;SDS011;18319;48.974;8.462;2023-07-20T01:41:22;1.70;;;1.60;;
31746;SDS011;18319;48.974;8.462;2023-07-20T01:43:49;3.50;;;1.50;;
31746;SDS011;18319;48.974;8.462;2023-07-20T01:46:16;2.17;;;1.60;;
31746;SDS011;18319;48.974;8.462;2023-07-20T01:48:45;2.40;;;1.92;;
31746;SDS011;18319;48.974;8.462;2023-07-20T01:51:12;1.80;;;1.70;;
31746;SDS011;18319;48.974;8.462;2023-07-20T01:53:39;1.55;;;1.38;;
31746;SDS011;18319;48.974;8.462;2023-07-20T01:56:05;2.63;;;1.58;;
31746;SDS011;18319;48.974;8.462;2023-07-20T01:58:32;5.45;;;1.80;;
31746;SDS011;18319;48.974;8.462;2023-07-20T02:01:00;4.40;;;1.55;;
31746;SDS011;18319;48.974;8.462;2023-07-20T02:03:27;3.40;;;1.75;;
31746;SDS011;18319;48.974;8.462;2023-07-20T02:05:55;1.58;;;1.10;;
31746;SDS011;18319;48.974;8.462;2023-07-20T02:08:22;2.00;;;1.23;;
31746;SDS011;18319;48.974;8.462;2023-07-20T02:10:49;1.63;;;1.27;;
31746;SDS011;18319;48.974;8.462;2023-07-20T02:13:17;1.27;;;1.17;;
31746;SDS011;18319;48.974;8.462;2023-07-20T02:15:44;1.63;;;1.30;;
31746;SDS011;18319;48.974;8.462;2023-07-20T02:18:12;1.90;;;1.13;;
31746;SDS011;18319;48.974;8.462;2023-07-20T02:20:40;1.67;;;1.58;;
31746;SDS011;18319;48.974;8.462;2023-07-20T02:23:08;1.58;;;1.48;;
31746;SDS011;18319;48.974;8.462;2023-07-20T02:25:35;2.42;;;1.42;;
31746;SDS011;18319;48.974;8.462;2023-07-20T02:28:03;3.42;;;1.48;;
31746;SDS011;18319;48.974;8.462;2023-07-20T02:30:30;1.90;;;1.70;;
31746;SDS011;18319;48.974;8.462;2023-07-20T02:32:57;1.92;;;1.45;;
31746;SDS011;18319;48.974;8.462;2023-07-20T02:35:24;2.30;;;1.20;;
31746;SDS011;18319;48.974;8.462;2023-07-20T02:37:51;2.30;;;1.42;;
31746;SDS011;18319;48.974;8.462;2023-07-20T02:40:19;1.65;;;1.33;;
31746;SDS011;18319;48.974;8.462;2023-07-20T02:42:46;1.80;;;1.40;;
31746;SDS011;18319;48.974;8.462;2023-07-20T02:45:13;2.85;;;1.50;;
31746;SDS011;18319;48.974;8.462;2023-07-20T02:47:40;2.00;;;1.20;;
31746;SDS011;18319;48.974;8.462;2023-07-20T02:50:07;2.22;;;1.15;;
31746;SDS011;18319;48.974;8.462;2023-07-20T02:52:34;1.48;;;1.38;;
31746;SDS011;18319;48.974;8.462;2023-07-20T02:55:01;3.85;;;1.58;;
31746;SDS011;18319;48.974;8.462;2023-07-20T02:57:29;2.08;;;1.63;;
31746;SDS011;18319;48.974;8.462;2023-07-20T02:59:56;2.10;;;1.30;;
31746;SDS011;18319;48.974;8.462;2023-07-20T03:02:23;2.40;;;1.25;;
31746;SDS011;18319;48.974;8.462;2023-07-20T03:04:50;1.52;;;1.42;;
31746;SDS011;18319;48.974;8.462;2023-07-20T03:07:17;2.03;;;1.45;;
31746;SDS011;18319;48.974;8.462;2023-07-20T03:09:43;4.38;;;1.30;;
31746;SDS011;18319;48.974;8.462;2023-07-20T03:12:10;1.80;;;1.58;;
31746;SDS011;18319;48.974;8.462;2023-07-20T03:14:38;1.60;;;1.15;;
31746;SDS011;18319;48.974;8.462;2023-07-20T03:17:05;2.70;;;1.27;;
31746;SDS011;18319;48.974;8.462;2023-07-20T03:19:33;1.98;;;1.63;;
31746;SDS011;18319;48.974;8.462;2023-07-20T03:22:00;2.55;;;1.30;;
31746;SDS011;18319;48.974;8.462;2023-07-20T03:24:27;3.72;;;1.67;;
31746;SDS011;18319;48.974;8.462;2023-07-20T03:26:53;3.00;;;1.42;;
31746;SDS011;18319;48.974;8.462;2023-07-20T03:29:20;2.60;;;1.75;;
31746;SDS011;18319;48.974;8.462;2023-07-20T03:31:48;3.55;;;1.30;;
31746;SDS011;18319;48.974;8.462;2023-07-20T03:34:15;1.45;;;1.20;;
31746;SDS011;18319;48.974;8.462;2023-07-20T03:36:42;6.35;;;1.73;;
31746;SDS011;18319;48.974;8.462;2023-07-20T03:39:09;3.38;;;1.40;;
31746;SDS011;18319;48.974;8.462;2023-07-20T03:41:35;1.33;;;1.23;;
31746;SDS011;18319;48.974;8.462;2023-07-20T03:44:03;1.67;;;1.58;;
31746;SDS011;18319;48.974;8.462;2023-07-20T03:46:30;1.88;;;1.40;;
31746;SDS011;18319;48.974;8.462;2023-07-20T03:49:00;1.58;;;1.05;;
31746;SDS011;18319;48.974;8.462;2023-07-20T03:51:27;2.42;;;1.38;;
31746;SDS011;18319;48.974;8.462;2023-07-20T03:53:54;1.88;;;1.60;;
31746;SDS011;18319;48.974;8.462;2023-07-20T03:56:21;2.00;;;1.52;;
31746;SDS011;18319;48.974;8.462;2023-07-20T03:58:48;5.65;;;1.58;;
31746;SDS011;18319;48.974;8.462;2023-07-20T04:01:14;2.58;;;1.30;;
31746;SDS011;18319;48.974;8.462;2023-07-20T04:03:41;1.75;;;1.60;;
31746;SDS011;18319;48.974;8.462;2023-07-20T04:06:09;2.30;;;1.42;;
31746;SDS011;18319;48.974;8.462;2023-07-20T04:08:37;2.50;;;2.00;;
31746;SDS011;18319;48.974;8.462;2023-07-20T04:13:33;3.42;;;2.03;;
31746;SDS011;18319;48.974;8.462;2023-07-20T04:16:00;3.38;;;1.80;;
31746;SDS011;18319;48.974;8.462;2023-07-20T04:18:27;2.40;;;1.30;;
31746;SDS011;18319;48.974;8.462;2023-07-20T04:20:54;5.68;;;1.42;;
31746;SDS011;18319;48.974;8.462;2023-07-20T04:23:22;1.40;;;1.30;;
31746;SDS011;18319;48.974;8.462;2023-07-20T04:25:49;2.75;;;1.67;;
31746;SDS011;18319;48.974;8.462;2023-07-20T04:28:15;1.35;;;1.25;;
31746;SDS011;18319;48.974;8.462;2023-07-20T04:30:42;1.77;;;1.63;;
31746;SDS011;18319;48.974;8.462;2023-07-20T04:33:09;1.90;;;1.38;;
31746;SDS011;18319;48.974;8.462;2023-07-20T04:35:46;2.80;;;1.70;;
31746;SDS011;18319;48.974;8.462;2023-07-20T04:38:16;2.30;;;1.60;;
31746;SDS011;18319;48.974;8.462;2023-07-20T04:40:45;2.80;;;2.60;;
31746;SDS011;18319;48.974;8.462;2023-07-20T04:43:12;3.00;;;1.33;;
31746;SDS011;18319;48.974;8.462;2023-07-20T04:45:39;3.33;;;1.52;;
31746;SDS011;18319;48.974;8.462;2023-07-20T04:48:08;3.22;;;1.80;;
31746;SDS011;18319;48.974;8.462;2023-07-20T04:50:36;2.83;;;1.63;;
31746;SDS011;18319;48.974;8.462;2023-07-20T04:53:03;1.80;;;1.70;;
31746;SDS011;18319;48.974;8.462;2023-07-20T04:55:30;1.60;;;1.50;;
31746;SDS011;18319;48.974;8.462;2023-07-20T04:58:00;1.67;;;1.40;;
31746;SDS011;18319;48.974;8.462;2023-07-20T05:00:26;3.83;;;1.58;;
31746;SDS011;18319;48.974;8.462;2023-07-20T05:02:53;4.35;;;2.10;;
31746;SDS011;18319;48.974;8.462;2023-07-20T05:05:20;1.70;;;1.60;;
31746;SDS011;18319;48.974;8.462;2023-07-20T05:07:47;2.65;;;1.40;;
31746;SDS011;18319;48.974;8.462;2023-07-20T05:10:14;2.05;;;1.50;;
31746;SDS011;18319;48.974;8.462;2023-07-20T05:12:40;1.75;;;1.50;;
31746;SDS011;18319;48.974;8.462;2023-07-20T05:15:09;4.38;;;1.75;;
31746;SDS011;18319;48.974;8.462;2023-07-20T05:17:36;1.70;;;1.60;;
31746;SDS011;18319;48.974;8.462;2023-07-20T05:20:04;3.53;;;1.80;;
31746;SDS011;18319;48.974;8.462;2023-07-20T05:22:34;2.17;;;1.55;;
31746;SDS011;18319;48.974;8.462;2023-07-20T05:25:00;2.97;;;1.67;;
31746;SDS011;18319;48.974;8.462;2023-07-20T05:27:27;1.63;;;1.52;;
31746;SDS011;18319;48.974;8.462;2023-07-20T05:29:54;2.47;;;1.63;;
31746;SDS011;18319;48.974;8.462;2023-07-20T05:32:22;4.95;;;1.77;;
31746;SDS011;18319;48.974;8.462;2023-07-20T05:34:51;1.77;;;1.65;;
31746;SDS011;18319;48.974;8.462;2023-07-20T05:37:19;3.13;;;2.30;;
31746;SDS011;18319;48.974;8.462;2023-07-20T05:39:45;3.60;;;1.90;;
31746;SDS011;18319;48.974;8.462;2023-07-20T05:42:12;1.30;;;1.20;;
31746;SDS011;18319;48.974;8.462;2023-07-20T05:44:39;2.13;;;1.92;;
31746;SDS011;18319;48.974;8.462;2023-07-20T05:47:07;3.40;;;1.40;;
31746;SDS011;18319;48.974;8.462;2023-07-20T05:49:35;2.45;;;1.80;;
31746;SDS011;18319;48.974;8.462;2023-07-20T05:52:02;2.83;;;2.45;;
31746;SDS011;18319;48.974;8.462;2023-07-20T05:54:29;3.22;;;1.70;;
31746;SDS011;18319;48.974;8.462;2023-07-20T05:56:55;4.13;;;1.67;;
31746;SDS011;18319;48.974;8.462;2023-07-20T05:59:22;2.72;;;1.70;;
31746;SDS011;18319;48.974;8.462;2023-07-20T06:01:50;2.25;;;1.95;;
31746;SDS011;18319;48.974;8.462;2023-07-20T06:04:17;3.17;;;1.52;;
31746;SDS011;18319;48.974;8.462;2023-07-20T06:06:45;1.75;;;1.52;;
31746;SDS011;18319;48.974;8.462;2023-07-20T06:09:13;2.22;;;1.80;;
31746;SDS011;18319;48.974;8.462;2023-07-20T06:11:39;3.53;;;1.70;;
31746;SDS011;18319;48.974;8.462;2023-07-20T06:14:06;2.50;;;1.95;;
31746;SDS011;18319;48.974;8.462;2023-07-20T06:16:33;2.92;;;1.23;;
31746;SDS011;18319;48.974;8.462;2023-07-20T06:19:00;1.80;;;1.65;;
31746;SDS011;18319;48.974;8.462;2023-07-20T06:21:27;3.92;;;2.08;;
31746;SDS011;18319;48.974;8.462;2023-07-20T06:23:55;2.63;;;1.50;;
31746;SDS011;18319;48.974;8.462;2023-07-20T06:26:22;1.98;;;1.80;;
31746;SDS011;18319;48.974;8.462;2023-07-20T06:28:48;3.47;;;2.10;;
31746;SDS011;18319;48.974;8.462;2023-07-20T06:31:16;2.20;;;1.83;;
31746;SDS011;18319;48.974;8.462;2023-07-20T06:33:43;2.15;;;1.95;;
31746;SDS011;18319;48.974;8.462;2023-07-20T06:36:10;2.75;;;1.90;;
31746;SDS011;18319;48.974;8.462;2023-07-20T06:38:38;1.88;;;1.77;;
31746;SDS011;18319;48.974;8.462;2023-07-20T06:41:27;5.35;;;2.13;;
31746;SDS011;18319;48.974;8.462;2023-07-20T06:43:56;1.92;;;1.80;;
31746;SDS011;18319;48.974;8.462;2023-07-20T06:46:24;3.35;;;1.73;;
31746;SDS011;18319;48.974;8.462;2023-07-20T06:48:52;2.33;;;1.80;;
31746;SDS011;18319;48.974;8.462;2023-07-20T06:51:19;1.95;;;1.85;;
31746;SDS011;18319;48.974;8.462;2023-07-20T06:53:47;2.88;;;1.63;;
31746;SDS011;18319;48.974;8.462;2023-07-20T06:56:13;2.58;;;1.73;;
31746;SDS011;18319;48.974;8.462;2023-07-20T06:58:41;4.03;;;2.20;;
31746;SDS011;18319;48.974;8.462;2023-07-20T07:01:08;2.75;;;1.88;;
31746;SDS011;18319;48.974;8.462;2023-07-20T07:03:35;3.85;;;1.80;;
31746;SDS011;18319;48.974;8.462;2023-07-20T07:06:02;2.88;;;1.90;;
31746;SDS011;18319;48.974;8.462;2023-07-20T07:08:29;2.88;;;2.00;;
31746;SDS011;18319;48.974;8.462;2023-07-20T07:10:56;3.65;;;2.10;;
31746;SDS011;18319;48.974;8.462;2023-07-20T07:13:23;2.20;;;1.90;;
31746;SDS011;18319;48.974;8.462;2023-07-20T07:15:51;2.42;;;1.70;;
31746;SDS011;18319;48.974;8.462;2023-07-20T07:18:18;3.40;;;1.60;;
31746;SDS011;18319;48.974;8.462;2023-07-20T07:20:50;5.78;;;1.98;;
31746;SDS011;18319;48.974;8.462;2023-07-20T07:23:17;2.05;;;1.63;;
31746;SDS011;18319;48.974;8.462;2023-07-20T07:25:44;2.45;;;1.65;;
31746;SDS011;18319;48.974;8.462;2023-07-20T07:28:11;2.88;;;1.42;;
31746;SDS011;18319;48.974;8.462;2023-07-20T07:30:38;4.53;;;2.17;;
31746;SDS011;18319;48.974;8.462;2023-07-20T07:33:06;4.18;;;1.95;;
31746;SDS011;18319;48.974;8.462;2023-07-20T07:35:33;2.55;;;1.60;;
31746;SDS011;18319;48.974;8.462;2023-07-20T07:38:00;2.95;;;1.75;;
31746;SDS011;18319;48.974;8.462;2023-07-20T07:40:27;4.38;;;1.35;;
31746;SDS011;18319;48.974;8.462;2023-07-20T07:42:54;3.85;;;1.58;;
31746;SDS011;18319;48.974;8.462;2023-07-20T07:45:20;3.65;;;1.20;;
31746;SDS011;18319;48.974;8.462;2023-07-20T07:47:47;2.65;;;1.48;;
31746;SDS011;18319;48.974;8.462;2023-07-20T07:50:15;2.63;;;1.40;;
31746;SDS011;18319;48.974;8.462;2023-07-20T07:52:42;2.40;;;1.67;;
31746;SDS011;18319;48.974;8.462;2023-07-20T07:55:09;2.47;;;2.28;;
31746;SDS011;18319;48.974;8.462;2023-07-20T07:57:36;1.20;;;1.20;;
31746;SDS011;18319;48.974;8.462;2023-07-20T08:00:03;2.10;;;1.48;;
31746;SDS011;18319;48.974;8.462;2023-07-20T08:02:31;1.85;;;1.23;;
31746;SDS011;18319;48.974;8.462;2023-07-20T08:04:58;3.05;;;1.50;;
31746;SDS011;18319;48.974;8.462;2023-07-20T08:07:27;1.33;;;1.10;;
31746;SDS011;18319;48.974;8.462;2023-07-20T08:09:54;3.78;;;1.30;;
31746;SDS011;18319;48.974;8.462;2023-07-20T08:12:21;3.30;;;1.45;;
31746;SDS011;18319;48.974;8.462;2023-07-20T08:14:48;2.22;;;1.30;;
31746;SDS011;18319;48.974;8.462;2023-07-20T08:17:14;2.30;;;1.10;;
31746;SDS011;18319;48.974;8.462;2023-07-20T08:19:41;6.93;;;1.42;;
31746;SDS011;18319;48.974;8.462;2023-07-20T08:22:09;1.27;;;0.82;;
31746;SDS011;18319;48.974;8.462;2023-07-20T08:24:39;1.58;;;1.17;;
31746;SDS011;18319;48.974;8.462;2023-07-20T08:27:07;2.53;;;0.90;;
31746;SDS011;18319;48.974;8.462;2023-07-20T08:29:34;3.05;;;1.20;;
31746;SDS011;18319;48.974;8.462;2023-07-20T08:32:01;1.65;;;1.40;;
31746;SDS011;18319;48.974;8.462;2023-07-20T08:34:29;3.67;;;1.50;;
31746;SDS011;18319;48.974;8.462;2023-07-20T08:36:56;2.40;;;1.50;;
31746;SDS011;18319;48.974;8.462;2023-07-20T08:39:23;2.92;;;1.38;;
31746;SDS011;18319;48.974;8.462;2023-07-20T08:41:51;2.72;;;1.27;;
31746;SDS011;18319;48.974;8.462;2023-07-20T08:44:18;2.60;;;1.23;;
31746;SDS011;18319;48.974;8.462;2023-07-20T08:46:45;1.42;;;1.20;;
31746;SDS011;18319;48.974;8.462;2023-07-20T08:49:14;3.78;;;1.15;;
31746;SDS011;18319;48.974;8.462;2023-07-20T08:51:43;1.80;;;1.30;;
31746;SDS011;18319;48.974;8.462;2023-07-20T08:54:12;1.42;;;1.33;;
31746;SDS011;18319;48.974;8.462;2023-07-20T08:56:40;4.00;;;0.95;;
31746;SDS011;18319;48.974;8.462;2023-07-20T08:59:10;3.60;;;1.40;;
31746;SDS011;18319;48.974;8.462;2023-07-20T09:01:38;2.38;;;1.38;;
31746;SDS011;18319;48.974;8.462;2023-07-20T09:04:06;1.40;;;1.17;;
31746;SDS011;18319;48.974;8.462;2023-07-20T09:06:33;2.75;;;1.50;;
31746;SDS011;18319;48.974;8.462;2023-07-20T09:09:01;1.33;;;1.23;;
31746;SDS011;18319;48.974;8.462;2023-07-20T09:11:28;1.58;;;1.40;;
31746;SDS011;18319;48.974;8.462;2023-07-20T09:14:04;3.35;;;1.15;;
31746;SDS011;18319;48.974;8.462;2023-07-20T09:16:33;1.30;;;1.20;;
31746;SDS011;18319;48.974;8.462;2023-07-20T09:19:14;2.47;;;1.02;;
31746;SDS011;18319;48.974;8.462;2023-07-20T09:21:41;3.10;;;1.20;;
31746;SDS011;18319;48.974;8.462;2023-07-20T09:24:10;3.22;;;1.05;;
31746;SDS011;18319;48.974;8.462;2023-07-20T09:26:40;2.35;;;1.25;;
31746;SDS011;18319;48.974;8.462;2023-07-20T09:29:08;3.25;;;1.25;;
31746;SDS011;18319;48.974;8.462;2023-07-20T09:31:36;2.17;;;0.95;;
31746;SDS011;18319;48.974;8.462;2023-07-20T09:34:05;1.55;;;1.23;;
31746;SDS011;18319;48.974;8.462;2023-07-20T09:36:33;1.13;;;1.00;;
31746;SDS011;18319;48.974;8.462;2023-07-20T09:39:00;1.98;;;1.00;;
31746;SDS011;18319;48.974;8.462;2023-07-20T09:41:29;2.25;;;1.60;;
31746;SDS011;18319;48.974;8.462;2023-07-20T09:43:56;3.90;;;1.50;;
31746;SDS011;18319;48.974;8.462;2023-07-20T09:46:23;3.70;;;0.98;;
31746;SDS011;18319;48.974;8.462;2023-07-20T09:48:53;3.20;;;2.03;;
31746;SDS011;18319;48.974;8.462;2023-07-20T09:51:21;1.15;;;1.08;;
31746;SDS011;18319;48.974;8.462;2023-07-20T09:53:49;2.25;;;1.30;;
31746;SDS011;18319;48.974;8.462;2023-07-20T09:56:18;1.48;;;1.25;;
31746;SDS011;18319;48.974;8.462;2023-07-20T09:58:49;3.53;;;0.98;;
31746;SDS011;18319;48.974;8.462;2023-07-20T10:01:16;1.73;;;1.15;;
31746;SDS011;18319;48.974;8.462;2023-07-20T10:03:46;1.83;;;0.90;;
31746;SDS011;18319;48.974;8.462;2023-07-20T10:06:18;1.00;;;1.00;;
31746;SDS011;18319;48.974;8.462;2023-07-20T10:08:49;2.33;;;1.05;;
31746;SDS011;18319;48.974;8.462;2023-07-20T10:11:19;1.27;;;1.10;;
31746;SDS011;18319;48.974;8.462;2023-07-20T10:13:50;1.17;;;1.15;;
31746;SDS011;18319;48.974;8.462;2023-07-20T10:16:20;1.00;;;0.90;;
31746;SDS011;18319;48.974;8.462;2023-07-20T10:18:59;1.00;;;1.00;;
31746;SDS011;18319;48.974;8.462;2023-07-20T10:21:30;0.98;;;0.70;;
31746;SDS011;18319;48.974;8.462;2023-07-20T10:23:59;1.20;;;0.93;;
31746;SDS011;18319;48.974;8.462;2023-07-20T10:26:27;1.58;;;0.93;;
31746;SDS011;18319;48.974;8.462;2023-07-20T10:28:55;1.95;;;0.95;;
31746;SDS011;18319;48.974;8.462;2023-07-20T10:31:22;1.30;;;0.77;;
31746;SDS011;18319;48.974;8.462;2023-07-20T10:33:53;1.67;;;1.27;;
31746;SDS011;18319;48.974;8.462;2023-07-20T10:36:24;0.98;;;0.70;;
31746;SDS011;18319;48.974;8.462;2023-07-20T10:38:54;0.75;;;0.75;;
31746;SDS011;18319;48.974;8.462;2023-07-20T10:41:23;0.70;;;0.70;;
31746;SDS011;18319;48.974;8.462;2023-07-20T10:43:57;2.90;;;0.73;;
31746;SDS011;18319;48.974;8.462;2023-07-20T10:46:34;1.33;;;0.85;;
31746;SDS011;18319;48.974;8.462;2023-07-20T10:49:10;2.22;;;0.85;;
31746;SDS011;18319;48.974;8.462;2023-07-20T10:51:41;1.83;;;0.73;;
31746;SDS011;18319;48.974;8.462;2023-07-20T10:54:12;0.82;;;0.70;;
31746;SDS011;18319;48.974;8.462;2023-07-20T10:57:22;1.05;;;0.90;;
31746;SDS011;18319;48.974;8.462;2023-07-20T10:59:50;2.10;;;0.80;;
31746;SDS011;18319;48.974;8.462;2023-07-20T11:02:17;1.58;;;0.90;;
31746;SDS011;18319;48.974;8.462;2023-07-20T11:04:45;2.47;;;0.95;;
31746;SDS011;18319;48.974;8.462;2023-07-20T11:07:15;1.40;;;0.82;;
31746;SDS011;18319;48.974;8.462;2023-07-20T11:09:43;1.67;;;0.60;;
31746;SDS011;18319;48.974;8.462;2023-07-20T11:12:11;2.67;;;0.85;;
31746;SDS011;18319;48.974;8.462;2023-07-20T11:14:40;1.00;;;0.90;;
31746;SDS011;18319;48.974;8.462;2023-07-20T11:17:11;1.45;;;0.73;;
31746;SDS011;18319;48.974;8.462;2023-07-20T11:19:38;0.90;;;0.90;;
31746;SDS011;18319;48.974;8.462;2023-07-20T11:22:06;1.85;;;1.08;;
31746;SDS011;18319;48.974;8.462;2023-07-20T11:24:34;2.97;;;1.13;;
31746;SDS011;18319;48.974;8.462;2023-07-20T11:27:05;0.98;;;0.90;;
31746;SDS011;18319;48.974;8.462;2023-07-20T11:29:32;0.95;;;0.70;;
31746;SDS011;18319;48.974;8.462;2023-07-20T11:32:00;1.13;;;0.90;;
31746;SDS011;18319;48.974;8.462;2023-07-20T11:34:30;2.38;;;1.00;;
31746;SDS011;18319;48.974;8.462;2023-07-20T11:36:57;0.75;;;0.70;;
31746;SDS011;18319;48.974;8.462;2023-07-20T11:39:25;2.15;;;1.02;;
31746;SDS011;18319;48.974;8.462;2023-07-20T11:41:52;2.42;;;0.68;;
31746;SDS011;18319;48.974;8.462;2023-07-20T11:44:23;0.77;;;0.70;;
31746;SDS011;18319;48.974;8.462;2023-07-20T11:46:59;0.60;;;0.60;;
31746;SDS011;18319;48.974;8.462;2023-07-20T11:49:28;0.80;;;0.80;;
31746;SDS011;18319;48.974;8.462;2023-07-20T11:51:55;1.00;;;1.00;;
31746;SDS011;18319;48.974;8.462;2023-07-20T11:54:22;0.55;;;0.50;;
31746;SDS011;18319;48.974;8.462;2023-07-20T11:56:53;0.63;;;0.63;;
31746;SDS011;18319;48.974;8.462;2023-07-20T11:59:21;1.75;;;0.75;;
31746;SDS011;18319;48.974;8.462;2023-07-20T12:01:49;2.13;;;0.80;;
31746;SDS011;18319;48.974;8.462;2023-07-20T12:04:15;0.52;;;0.50;;
31746;SDS011;18319;48.974;8.462;2023-07-20T12:06:42;0.70;;;0.60;;
31746;SDS011;18319;48.974;8.462;2023-07-20T12:09:13;1.60;;;0.55;;
31746;SDS011;18319;48.974;8.462;2023-07-20T12:11:42;0.82;;;0.60;;
31746;SDS011;18319;48.974;8.462;2023-07-20T12:14:10;0.73;;;0.60;;
31746;SDS011;18319;48.974;8.462;2023-07-20T12:16:38;1.00;;;0.80;;
31746;SDS011;18319;48.974;8.462;2023-07-20T12:19:07;0.77;;;0.77;;
31746;SDS011;18319;48.974;8.462;2023-07-20T12:21:35;0.70;;;0.70;;
31746;SDS011;18319;48.974;8.462;2023-07-20T12:24:03;0.50;;;0.50;;
31746;SDS011;18319;48.974;8.462;2023-07-20T12:26:31;0.55;;;0.55;;
31746;SDS011;18319;48.974;8.462;2023-07-20T12:28:59;0.98;;;0.60;;
31746;SDS011;18319;48.974;8.462;2023-07-20T12:31:26;0.57;;;0.40;;
31746;SDS011;18319;48.974;8.462;2023-07-20T12:33:56;1.10;;;0.70;;
31746;SDS011;18319;48.974;8.462;2023-07-20T12:36:24;0.93;;;0.80;;
31746;SDS011;18319;48.974;8.462;2023-07-20T12:38:51;2.13;;;0.77;;
31746;SDS011;18319;48.974;8.462;2023-07-20T12:41:18;0.63;;;0.63;;
31746;SDS011;18319;48.974;8.462;2023-07-20T12:43:45;1.65;;;0.63;;
31746;SDS011;18319;48.974;8.462;2023-07-20T12:46:12;1.30;;;0.70;;
31746;SDS011;18319;48.974;8.462;2023-07-20T12:48:40;0.63;;;0.63;;
31746;SDS011;18319;48.974;8.462;2023-07-20T12:51:08;1.30;;;0.75;;
31746;SDS011;18319;48.974;8.462;2023-07-20T12:53:36;0.85;;;0.85;;
31746;SDS011;18319;48.974;8.462;2023-07-20T12:56:04;1.95;;;0.50;;
31746;SDS011;18319;48.974;8.462;2023-07-20T12:58:31;0.68;;;0.60;;
31746;SDS011;18319;48.974;8.462;2023-07-20T13:00:58;2.72;;;0.50;;
31746;SDS011;18319;48.974;8.462;2023-07-20T13:03:24;0.57;;;0.57;;
31746;SDS011;18319;48.974;8.462;2023-07-20T13:05:51;0.43;;;0.40;;
31746;SDS011;18319;48.974;8.462;2023-07-20T13:08:19;2.90;;;0.40;;
31746;SDS011;18319;48.974;8.462;2023-07-20T13:10:50;0.50;;;0.50;;
31746;SDS011;18319;48.974;8.462;2023-07-20T13:13:17;0.95;;;0.40;;
31746;SDS011;18319;48.974;8.462;2023-07-20T13:15:44;1.23;;;0.70;;
31746;SDS011;18319;48.974;8.462;2023-07-20T13:18:11;0.82;;;0.70;;
31746;SDS011;18319;48.974;8.462;2023-07-20T13:20:38;0.75;;;0.52;;
31746;SDS011;18319;48.974;8.462;2023-07-20T13:23:05;3.00;;;0.90;;
31746;SDS011;18319;48.974;8.462;2023-07-20T13:25:33;0.60;;;0.60;;
31746;SDS011;18319;48.974;8.462;2023-07-20T13:28:00;0.68;;;0.68;;
31746;SDS011;18319;48.974;8.462;2023-07-20T13:30:27;1.40;;;0.50;;
31746;SDS011;18319;48.974;8.462;2023-07-20T13:32:54;0.50;;;0.47;;
31746;SDS011;18319;48.974;8.462;2023-07-20T13:35:21;0.52;;;0.40;;
31746;SDS011;18319;48.974;8.462;2023-07-20T13:37:47;0.95;;;0.35;;
31746;SDS011;18319;48.974;8.462;2023-07-20T13:40:14;0.50;;;0.45;;
31746;SDS011;18319;48.974;8.462;2023-07-20T13:42:45;0.50;;;0.50;;
31746;SDS011;18319;48.974;8.462;2023-07-20T13:45:11;0.60;;;0.50;;
31746;SDS011;18319;48.974;8.462;2023-07-20T13:47:38;1.38;;;0.40;;
31746;SDS011;18319;48.974;8.462;2023-07-20T13:50:05;1.13;;;0.50;;
31746;SDS011;18319;48.974;8.462;2023-07-20T13:52:33;1.33;;;0.50;;
31746;SDS011;18319;48.974;8.462;2023-07-20T13:55:00;1.75;;;0.50;;
31746;SDS011;18319;48.974;8.462;2023-07-20T13:57:27;0.60;;;0.60;;
31746;SDS011;18319;48.974;8.462;2023-07-20T13:59:55;2.20;;;0.55;;
31746;SDS011;18319;48.974;8.462;2023-07-20T14:02:21;0.70;;;0.70;;
31746;SDS011;18319;48.974;8.462;2023-07-20T14:04:48;0.30;;;0.30;;
31746;SDS011;18319;48.974;8.462;2023-07-20T14:07:15;1.00;;;0.50;;
31746;SDS011;18319;48.974;8.462;2023-07-20T14:09:41;1.23;;;0.60;;
31746;SDS011;18319;48.974;8.462;2023-07-20T14:12:08;0.35;;;0.35;;
31746;SDS011;18319;48.974;8.462;2023-07-20T14:14:37;0.57;;;0.57;;
31746;SDS011;18319;48.974;8.462;2023-07-20T14:17:05;0.63;;;0.50;;
31746;SDS011;18319;48.974;8.462;2023-07-20T14:19:32;0.52;;;0.52;;
31746;SDS011;18319;48.974;8.462;2023-07-20T14:21:58;0.55;;;0.55;;
31746;SDS011;18319;48.974;8.462;2023-07-20T14:24:25;0.60;;;0.60;;
31746;SDS011;18319;48.974;8.462;2023-07-20T14:26:52;0.40;;;0.40;;
31746;SDS011;18319;48.974;8.462;2023-07-20T14:29:19;0.60;;;0.60;;
31746;SDS011;18319;48.974;8.462;2023-07-20T14:31:46;0.43;;;0.43;;
31746;SDS011;18319;48.974;8.462;2023-07-20T14:34:16;1.85;;;0.30;;
31746;SDS011;18319;48.974;8.462;2023-07-20T14:36:44;0.57;;;0.57;;
31746;SDS011;18319;48.974;8.462;2023-07-20T14:39:10;0.70;;;0.43;;
31746;SDS011;18319;48.974;8.462;2023-07-20T14:41:37;0.95;;;0.60;;
31746;SDS011;18319;48.974;8.462;2023-07-20T14:44:04;0.68;;;0.68;;
31746;SDS011;18319;48.974;8.462;2023-07-20T14:46:31;0.63;;;0.50;;
31746;SDS011;18319;48.974;8.462;2023-07-20T14:48:57;0.60;;;0.50;;
31746;SDS011;18319;48.974;8.462;2023-07-20T14:51:26;0.60;;;0.60;;
31746;SDS011;18319;48.974;8.462;2023-07-20T14:53:56;0.70;;;0.70;;
31746;SDS011;18319;48.974;8.462;2023-07-20T14:56:23;2.45;;;0.50;;